Time;durP1;ratioP1;P1;durP2;ratioP2;P2;SDS_P1;SDS_P2;PMS_P1;PMS_P2;Temp;Humidity;BMP_temperature;BMP_pressure;BME280_temperature;BME280_humidity;BME280_pressure;Samples;Min_cycle;Max_cycle;Signal;HPM_P1;HPM_P2
2022/07/01 00:02:10;;;;;;;;;;;18.80;99.90;;;;;;5124717;27;20281;-55
2022/07/01 00:04:50;;;;;;;;;;;18.80;99.90;;;;;;5089544;27;19927;-55
2022/07/01 00:07:49;;;;;;;;;;;18.80;99.90;;;;;;5105246;27;19912;-55
2022/07/01 00:10:29;;;;;;;;;;;18.80;99.90;;;;;;5124366;27;20502;-55
2022/07/01 00:13:09;;;;;;;;;;;18.80;99.90;;;;;;5112711;27;19912;-55
2022/07/01 00:15:49;;;;;;;;;;;18.70;99.90;;;;;;5124253;27;19911;-55
2022/07/01 00:18:29;;;;;;;;;;;18.60;99.90;;;;;;5124564;27;19926;-55
2022/07/01 00:21:08;;;;;;;;;;;18.50;99.90;;;;;;5145233;27;19911;-56
2022/07/01 00:23:48;;;;;;;;;;;18.30;99.90;;;;;;5118562;27;19961;-55
2022/07/01 00:26:28;;;;;;;;;;;18.30;99.90;;;;;;5123832;27;19911;-56
2022/07/01 00:29:08;;;;;;;;;;;18.30;99.90;;;;;;5124197;27;19915;-56
2022/07/01 00:31:48;;;;;;;;;;;18.40;99.90;;;;;;5124774;27;20095;-54
2022/07/01 00:34:28;;;;;;;;;;;18.50;99.90;;;;;;5091017;27;19966;-55
2022/07/01 00:37:07;;;;;;;;;;;18.50;99.90;;;;;;5123608;27;20319;-55
2022/07/01 00:39:47;;;;;;;;;;;18.50;99.90;;;;;;5144994;27;19915;-55
2022/07/01 00:42:27;;;;;;;;;;;18.50;99.90;;;;;;5104218;27;19912;-55
2022/07/01 00:45:09;;;;;;;;;;;18.40;99.90;;;;;;5104035;27;19912;-55
2022/07/01 00:47:50;;;;;;;;;;;18.20;99.90;;;;;;5103613;27;19926;-55
2022/07/01 00:50:30;;;;;;;;;;;18.30;99.90;;;;;;5124705;27;19912;-55
2022/07/01 00:53:09;;;;;;;;;;;18.40;99.90;;;;;;5124267;27;19918;-55
2022/07/01 00:55:49;;;;;;;;;;;18.50;99.90;;;;;;5124355;27;20320;-55
2022/07/01 00:58:30;;;;;;;;;;;18.60;99.90;;;;;;5124190;27;19916;-55
2022/07/01 01:01:11;;;;;;;;;;;18.70;99.90;;;;;;5083753;28;19916;-55
2022/07/01 01:03:50;;;;;;;;;;;18.70;99.90;;;;;;5097463;27;19912;-55
2022/07/01 01:06:30;;;;;;;;;;;18.70;99.90;;;;;;5123581;27;20339;-55
2022/07/01 01:09:22;;;;;;;;;;;18.70;99.90;;;;;;5123808;27;19918;-55
2022/07/01 01:12:02;;;;;;;;;;;18.80;99.90;;;;;;5104205;27;19923;-56
2022/07/01 01:14:47;;;;;;;;;;;18.90;99.90;;;;;;5103921;27;20315;-55
2022/07/01 01:17:28;;;;;;;;;;;18.90;99.90;;;;;;5103553;27;19927;-55
2022/07/01 01:20:08;;;;;;;;;;;18.90;99.90;;;;;;5104175;27;19919;-55
2022/07/01 01:22:49;;;;;;;;;;;19.10;99.90;;;;;;5125540;27;19911;-55
2022/07/01 01:25:29;;;;;;;;;;;19.20;99.90;;;;;;5104566;27;19912;-55
2022/07/01 01:28:09;;;;;;;;;;;19.20;99.90;;;;;;5145284;27;19918;-55
2022/07/01 01:30:48;;;;;;;;;;;19.30;99.90;;;;;;5124763;27;19915;-55
2022/07/01 01:33:28;;;;;;;;;;;19.30;99.90;;;;;;5119707;27;19912;-55
2022/07/01 01:36:08;;;;;;;;;;;19.40;99.90;;;;;;5143012;27;20376;-55
2022/07/01 01:38:48;;;;;;;;;;;19.50;99.90;;;;;;5124868;27;19918;-55
2022/07/01 01:41:28;;;;;;;;;;;19.60;99.90;;;;;;5125366;27;19911;-55
2022/07/01 01:44:08;;;;;;;;;;;19.80;99.90;;;;;;5103874;27;19934;-55
2022/07/01 01:46:47;;;;;;;;;;;19.90;99.90;;;;;;5123916;27;19912;-55
2022/07/01 01:49:27;;;;;;;;;;;20.10;99.90;;;;;;5125296;27;19916;-55
2022/07/01 01:52:07;;;;;;;;;;;20.20;99.90;;;;;;5120237;27;20324;-55
2022/07/01 01:54:47;;;;;;;;;;;20.20;99.90;;;;;;5107280;27;20397;-54
2022/07/01 01:57:27;;;;;;;;;;;20.30;99.90;;;;;;5123447;27;19922;-55
2022/07/01 02:00:09;;;;;;;;;;;20.40;99.90;;;;;;5144270;27;19912;-53
2022/07/01 02:02:53;;;;;;;;;;;20.40;99.90;;;;;;5124100;27;20381;-55
2022/07/01 02:05:33;;;;;;;;;;;20.40;99.90;;;;;;5095384;27;19930;-55
2022/07/01 02:08:15;;;;;;;;;;;20.40;99.90;;;;;;5124146;27;19911;-54
2022/07/01 02:10:56;;;;;;;;;;;20.30;99.90;;;;;;5123736;27;19916;-53
2022/07/01 02:13:36;;;;;;;;;;;20.20;99.90;;;;;;5123924;27;19934;-54
2022/07/01 02:16:17;;;;;;;;;;;20.10;99.90;;;;;;5123740;27;20397;-53
2022/07/01 02:18:57;;;;;;;;;;;20.00;99.90;;;;;;5123403;27;19918;-55
2022/07/01 02:21:36;;;;;;;;;;;19.90;99.90;;;;;;5103468;27;19946;-55
2022/07/01 02:24:16;;;;;;;;;;;19.70;99.90;;;;;;5165616;27;19911;-55
2022/07/01 02:26:56;;;;;;;;;;;19.60;99.90;;;;;;5124090;27;19916;-53
2022/07/01 02:29:36;;;;;;;;;;;19.40;99.90;;;;;;5124372;27;20300;-53
2022/07/01 02:32:16;;;;;;;;;;;19.20;99.90;;;;;;5124746;27;19926;-54
2022/07/01 02:34:56;;;;;;;;;;;19.00;99.90;;;;;;5106963;27;19913;-54
2022/07/01 02:37:35;;;;;;;;;;;18.70;99.90;;;;;;5082261;28;19916;-54
2022/07/01 02:40:18;;;;;;;;;;;18.60;99.90;;;;;;5103547;27;19912;-54
2022/07/01 02:42:58;;;;;;;;;;;18.50;99.90;;;;;;5123724;27;19915;-53
2022/07/01 02:45:38;;;;;;;;;;;18.40;99.90;;;;;;5103674;27;20327;-55
2022/07/01 02:48:18;;;;;;;;;;;18.20;99.90;;;;;;5124495;27;20298;-54
2022/07/01 02:50:58;;;;;;;;;;;18.00;99.90;;;;;;5124263;27;19961;-53
2022/07/01 02:53:38;;;;;;;;;;;17.90;99.90;;;;;;5120713;27;19912;-56
2022/07/01 02:56:17;;;;;;;;;;;17.80;99.90;;;;;;5123664;27;19912;-53
2022/07/01 02:58:57;;;;;;;;;;;17.80;99.90;;;;;;5123943;27;19912;-53
2022/07/01 03:01:37;;;;;;;;;;;17.70;99.90;;;;;;5124325;27;20315;-54
2022/07/01 03:04:17;;;;;;;;;;;17.70;99.90;;;;;;5094018;27;19926;-55
2022/07/01 03:06:57;;;;;;;;;;;17.70;99.90;;;;;;5123172;27;19919;-55
2022/07/01 03:09:39;;;;;;;;;;;17.70;99.90;;;;;;5103684;27;19916;-56
2022/07/01 03:12:27;;;;;;;;;;;17.70;99.90;;;;;;5124651;27;19911;-55
2022/07/01 03:15:09;;;;;;;;;;;17.70;99.90;;;;;;5123456;27;19916;-54
2022/07/01 03:17:50;;;;;;;;;;;17.70;99.90;;;;;;5123519;27;19915;-55
2022/07/01 03:20:30;;;;;;;;;;;17.60;99.90;;;;;;5103722;27;19946;-54
2022/07/01 03:23:10;;;;;;;;;;;17.60;99.90;;;;;;5123609;27;19915;-54
2022/07/01 03:25:50;;;;;;;;;;;17.70;99.90;;;;;;5103336;27;19930;-54
2022/07/01 03:28:31;;;;;;;;;;;17.80;99.90;;;;;;5124551;27;20379;-55
2022/07/01 03:31:11;;;;;;;;;;;17.80;99.90;;;;;;5123735;27;19918;-55
2022/07/01 03:33:53;;;;;;;;;;;17.80;99.90;;;;;;5115898;27;20107;-55
2022/07/01 03:36:33;;;;;;;;;;;17.80;99.90;;;;;;5103388;27;19912;-54
2022/07/01 03:39:14;;;;;;;;;;;17.70;99.90;;;;;;5124687;27;19912;-54
2022/07/01 03:41:54;;;;;;;;;;;17.60;99.90;;;;;;5103473;27;19930;-54
2022/07/01 03:44:34;;;;;;;;;;;17.60;99.90;;;;;;5124302;27;19912;-57
2022/07/01 03:47:13;;;;;;;;;;;17.70;99.90;;;;;;5123671;27;19915;-55
2022/07/01 03:49:53;;;;;;;;;;;17.80;99.90;;;;;;5103327;27;20266;-54
2022/07/01 03:52:33;;;;;;;;;;;17.90;99.90;;;;;;5124497;27;20319;-54
2022/07/01 03:55:13;;;;;;;;;;;17.90;99.90;;;;;;5111835;27;19916;-54
2022/07/01 03:57:53;;;;;;;;;;;18.00;99.90;;;;;;5123080;27;19912;-54
2022/07/01 04:00:33;;;;;;;;;;;18.10;99.90;;;;;;5123663;27;19934;-55
2022/07/01 04:03:14;;;;;;;;;;;18.30;99.90;;;;;;5122730;27;20380;-53
2022/07/01 04:05:54;;;;;;;;;;;18.50;99.90;;;;;;5100905;27;19912;-54
2022/07/01 04:08:34;;;;;;;;;;;18.80;99.90;;;;;;5157024;27;20108;-53
2022/07/01 04:11:13;;;;;;;;;;;19.00;99.90;;;;;;5103594;27;19949;-53
2022/07/01 04:13:53;;;;;;;;;;;19.30;99.90;;;;;;5124455;27;19918;-55
2022/07/01 04:16:33;;;;;;;;;;;19.60;99.90;;;;;;5103051;27;19916;-53
2022/07/01 04:19:14;;;;;;;;;;;19.90;99.90;;;;;;5103253;27;19926;-56
2022/07/01 04:25:05;;;;;;;;;;;20.80;99.90;;;;;;5106967;27;20119;-54
2022/07/01 04:27:47;;;;;;;;;;;20.80;99.90;;;;;;5123453;27;19912;-54
2022/07/01 04:30:27;;;;;;;;;;;20.60;99.90;;;;;;5117872;27;20369;-55
2022/07/01 04:33:07;;;;;;;;;;;20.40;99.90;;;;;;5123614;27;20412;-55
2022/07/01 04:35:47;;;;;;;;;;;20.20;99.90;;;;;;5100778;27;19912;-56
2022/07/01 04:38:33;;;;;;;;;;;20.20;99.90;;;;;;5122595;27;20322;-57
2022/07/01 04:44:13;;;;;;;;;;;20.10;99.90;;;;;;5103689;27;19912;-54
2022/07/01 04:46:53;;;;;;;;;;;20.00;99.90;;;;;;5102004;27;19916;-55
2022/07/01 04:49:36;;;;;;;;;;;19.90;99.90;;;;;;5103214;27;20323;-56
2022/07/01 04:52:20;;;;;;;;;;;19.90;99.90;;;;;;5124304;27;19911;-54
2022/07/01 04:55:03;;;;;;;;;;;19.70;99.90;;;;;;5123576;27;19929;-55
2022/07/01 04:57:47;;;;;;;;;;;19.80;99.90;;;;;;5123108;27;20754;-54
2022/07/01 05:00:27;;;;;;;;;;;19.80;99.90;;;;;;5122635;27;20308;-55
2022/07/01 05:03:07;;;;;;;;;;;19.80;99.90;;;;;;5102688;27;19926;-55
2022/07/01 05:05:47;;;;;;;;;;;19.80;99.90;;;;;;5124573;27;19926;-56
2022/07/01 05:08:27;;;;;;;;;;;19.80;99.90;;;;;;5123766;27;19912;-55
2022/07/01 05:11:07;;;;;;;;;;;19.90;99.90;;;;;;5116217;27;19915;-55
2022/07/01 05:13:46;;;;;;;;;;;20.00;99.90;;;;;;5122943;27;19912;-55
2022/07/01 05:16:26;;;;;;;;;;;20.20;99.90;;;;;;5123207;27;20297;-56
2022/07/01 05:22:04;;;;;;;;;;;20.80;99.90;;;;;;5123921;27;19920;-56
2022/07/01 05:24:45;;;;;;;;;;;21.10;99.90;;;;;;5110578;27;20377;-55
2022/07/01 05:27:25;;;;;;;;;;;21.20;99.90;;;;;;5123840;27;20375;-55
2022/07/01 05:30:05;;;;;;;;;;;21.30;99.90;;;;;;5124170;27;19916;-55
2022/07/01 05:32:46;;;;;;;;;;;21.40;99.90;;;;;;5123997;27;20346;-57
2022/07/01 05:35:26;;;;;;;;;;;21.50;99.90;;;;;;5136889;27;19911;-55
2022/07/01 05:38:05;;;;;;;;;;;21.40;99.90;;;;;;5123268;27;19925;-54
2022/07/01 05:40:45;;;;;;;;;;;21.40;99.90;;;;;;5123922;27;19915;-55
2022/07/01 05:43:25;;;;;;;;;;;21.30;99.90;;;;;;5124396;27;19920;-56
2022/07/01 05:46:05;;;;;;;;;;;21.40;99.90;;;;;;5103046;27;20359;-56
2022/07/01 05:48:45;;;;;;;;;;;21.60;99.90;;;;;;5124091;27;20665;-55
2022/07/01 05:51:25;;;;;;;;;;;21.80;99.90;;;;;;5124423;27;19912;-55
2022/07/01 05:54:16;;;;;;;;;;;21.80;99.90;;;;;;5166249;27;19925;-55
2022/07/01 05:56:56;;;;;;;;;;;21.70;99.90;;;;;;5123618;27;19916;-55
2022/07/01 05:59:36;;;;;;;;;;;21.50;99.90;;;;;;5124332;27;19922;-56
2022/07/01 06:02:16;;;;;;;;;;;21.30;99.90;;;;;;5124359;27;19922;-57
2022/07/01 06:04:55;;;;;;;;;;;21.10;99.90;;;;;;5087963;27;19926;-57
2022/07/01 06:07:35;;;;;;;;;;;21.00;99.90;;;;;;5123875;27;20157;-56
2022/07/01 06:10:15;;;;;;;;;;;21.00;99.90;;;;;;5124422;27;19912;-56
2022/07/01 06:12:55;;;;;;;;;;;21.10;99.90;;;;;;5124484;27;19961;-54
2022/07/01 06:15:35;;;;;;;;;;;21.30;99.90;;;;;;5144927;27;20213;-54
2022/07/01 06:18:15;;;;;;;;;;;21.40;99.90;;;;;;5103284;27;20278;-56
2022/07/01 06:20:54;;;;;;;;;;;21.60;99.90;;;;;;5123853;27;19912;-55
2022/07/01 06:23:34;;;;;;;;;;;21.60;99.90;;;;;;5124852;27;19911;-56
2022/07/01 06:26:14;;;;;;;;;;;21.60;99.90;;;;;;5124022;27;19912;-57
2022/07/01 06:29:06;;;;;;;;;;;21.50;99.90;;;;;;5103389;27;19912;-57
2022/07/01 06:31:46;;;;;;;;;;;21.40;99.90;;;;;;5103519;27;20328;-54
2022/07/01 06:34:25;;;;;;;;;;;21.10;99.90;;;;;;5111098;27;20401;-54
2022/07/01 06:37:05;;;;;;;;;;;20.80;99.90;;;;;;5123820;27;19911;-55
2022/07/01 06:39:45;;;;;;;;;;;20.60;99.90;;;;;;5124200;27;19918;-55
2022/07/01 06:42:25;;;;;;;;;;;20.20;99.90;;;;;;5104212;27;19958;-56
2022/07/01 06:45:06;;;;;;;;;;;19.80;99.90;;;;;;5104159;27;20308;-57
2022/07/01 06:47:46;;;;;;;;;;;19.50;99.90;;;;;;5124143;27;19916;-55
2022/07/01 06:50:26;;;;;;;;;;;19.10;99.90;;;;;;5104121;27;19954;-54
2022/07/01 06:53:06;;;;;;;;;;;18.80;99.90;;;;;;5158398;27;19912;-54
2022/07/01 06:55:47;;;;;;;;;;;18.50;99.90;;;;;;5124519;27;19915;-56
2022/07/01 06:58:27;;;;;;;;;;;18.40;99.90;;;;;;5104874;27;19912;-56
2022/07/01 07:01:07;;;;;;;;;;;18.30;99.90;;;;;;5137068;27;20296;-55
2022/07/01 07:03:47;;;;;;;;;;;18.30;99.90;;;;;;5125366;27;19912;-55
2022/07/01 07:06:28;;;;;;;;;;;18.40;99.90;;;;;;5124924;27;20303;-55
2022/07/01 07:09:08;;;;;;;;;;;18.80;99.90;;;;;;5145509;27;19912;-55
2022/07/01 07:12:00;;;;;;;;;;;19.20;99.90;;;;;;5113176;27;20311;-56
2022/07/01 07:14:39;;;;;;;;;;;19.90;99.90;;;;;;5125623;27;20159;-55
2022/07/01 07:17:19;;;;;;;;;;;20.50;99.90;;;;;;5124290;27;19918;-55
2022/07/01 07:19:59;;;;;;;;;;;21.10;99.90;;;;;;5124970;27;20494;-55
2022/07/01 07:22:42;;;;;;;;;;;21.40;99.90;;;;;;5125473;27;20262;-58
2022/07/01 07:25:22;;;;;;;;;;;21.90;99.90;;;;;;5124791;27;19918;-57
2022/07/01 07:28:02;;;;;;;;;;;22.20;99.90;;;;;;5103420;27;19912;-53
2022/07/01 07:30:42;;;;;;;;;;;22.00;99.90;;;;;;5162441;27;19921;-55
2022/07/01 07:33:22;;;;;;;;;;;21.90;99.90;;;;;;5104811;27;19977;-55
2022/07/01 07:36:03;;;;;;;;;;;21.70;99.90;;;;;;5129457;27;19926;-56
2022/07/01 07:38:43;;;;;;;;;;;21.80;99.90;;;;;;5104444;27;19926;-56
2022/07/01 07:41:22;;;;;;;;;;;22.30;99.90;;;;;;5104053;27;19920;-56
2022/07/01 07:44:02;;;;;;;;;;;22.80;99.90;;;;;;5124690;27;20043;-56
2022/07/01 07:46:42;;;;;;;;;;;23.20;99.90;;;;;;5123581;27;20304;-55
2022/07/01 07:49:22;;;;;;;;;;;23.20;99.90;;;;;;5124463;27;19916;-56
2022/07/01 07:52:02;;;;;;;;;;;22.80;99.90;;;;;;5124349;27;19912;-55
2022/07/01 07:54:42;;;;;;;;;;;22.10;99.90;;;;;;5111645;27;19913;-55
2022/07/01 07:57:22;;;;;;;;;;;21.50;99.90;;;;;;5123481;27;20285;-55
2022/07/01 08:00:03;;;;;;;;;;;21.20;99.90;;;;;;5124540;27;19920;-56
2022/07/01 08:02:51;;;;;;;;;;;20.90;99.90;;;;;;5104091;27;19926;-54
2022/07/01 08:05:32;;;;;;;;;;;20.50;99.90;;;;;;5111380;27;20263;-55
2022/07/01 08:08:12;;;;;;;;;;;20.10;99.90;;;;;;5103873;27;20419;-54
2022/07/01 08:10:52;;;;;;;;;;;19.70;99.90;;;;;;5124236;27;19912;-56
2022/07/01 08:13:32;;;;;;;;;;;19.20;99.90;;;;;;5124470;27;19930;-56
2022/07/01 08:16:11;;;;;;;;;;;18.90;99.90;;;;;;5123719;27;19916;-57
2022/07/01 08:18:51;;;;;;;;;;;18.60;99.90;;;;;;5124232;27;19912;-55
2022/07/01 08:21:31;;;;;;;;;;;18.60;99.90;;;;;;5124267;27;20324;-54
2022/07/01 08:24:11;;;;;;;;;;;18.60;99.90;;;;;;5115549;27;19918;-54
2022/07/01 08:26:51;;;;;;;;;;;18.80;99.90;;;;;;5102953;27;19930;-55
2022/07/01 08:29:31;;;;;;;;;;;18.90;99.90;;;;;;5124500;27;19911;-55
2022/07/01 08:32:10;;;;;;;;;;;18.90;99.90;;;;;;5124237;27;19912;-56
2022/07/01 08:34:52;;;;;;;;;;;18.80;99.90;;;;;;5107582;27;20267;-56
2022/07/01 08:37:32;;;;;;;;;;;18.80;99.90;;;;;;5102968;27;19945;-55
2022/07/01 08:40:12;;;;;;;;;;;18.70;99.90;;;;;;5124391;27;19918;-55
2022/07/01 08:42:51;;;;;;;;;;;18.60;99.90;;;;;;5124582;27;20320;-55
2022/07/01 08:45:32;;;;;;;;;;;18.60;99.90;;;;;;5124508;27;20292;-56
2022/07/01 08:48:13;;;;;;;;;;;18.60;99.90;;;;;;5103674;27;19954;-56
2022/07/01 08:50:52;;;;;;;;;;;18.60;99.90;;;;;;5103893;27;19962;-57
2022/07/01 08:53:32;;;;;;;;;;;18.80;99.90;;;;;;5120667;27;19934;-56
2022/07/01 08:59:10;;;;;;;;;;;19.30;99.90;;;;;;5104237;27;20021;-55
2022/07/01 09:01:57;;;;;;;;;;;19.30;99.90;;;;;;5123821;27;20270;-56
2022/07/01 09:04:37;;;;;;;;;;;19.10;99.90;;;;;;5097650;27;19974;-55
2022/07/01 09:07:17;;;;;;;;;;;18.80;99.90;;;;;;5102587;27;20343;-57
2022/07/01 09:10:12;;;;;;;;;;;18.60;99.90;;;;;;5103891;27;19920;-57
2022/07/01 09:12:53;;;;;;;;;;;18.40;99.90;;;;;;5124388;27;19934;-54
2022/07/01 09:15:32;;;;;;;;;;;18.50;99.90;;;;;;5103786;27;19912;-55
2022/07/01 09:18:13;;;;;;;;;;;19.10;99.90;;;;;;5124257;27;19911;-55
2022/07/01 09:20:54;;;;;;;;;;;19.70;99.90;;;;;;5124287;27;19916;-54
2022/07/01 09:23:34;;;;;;;;;;;20.10;99.90;;;;;;5120482;27;20296;-56
2022/07/01 09:26:21;;;;;;;;;;;20.40;99.90;;;;;;5123807;27;19918;-56
2022/07/01 09:29:02;;;;;;;;;;;20.30;99.90;;;;;;5123947;27;19918;-54
2022/07/01 09:31:48;;;;;;;;;;;20.40;99.90;;;;;;5124318;27;19912;-55
2022/07/01 09:34:32;;;;;;;;;;;20.10;99.90;;;;;;5117888;27;20115;-56
2022/07/01 09:37:13;;;;;;;;;;;19.70;99.90;;;;;;5123664;27;19912;-56
2022/07/01 09:39:54;;;;;;;;;;;19.30;99.90;;;;;;5123825;27;20308;-56
2022/07/01 09:42:44;;;;;;;;;;;18.90;99.90;;;;;;5124579;27;19918;-54
2022/07/01 09:45:24;;;;;;;;;;;18.90;99.90;;;;;;5103846;27;19926;-55
2022/07/01 09:48:05;;;;;;;;;;;19.20;99.90;;;;;;5164353;27;19919;-55
2022/07/01 09:50:46;;;;;;;;;;;19.90;99.90;;;;;;5104025;27;20339;-55
2022/07/01 09:53:25;;;;;;;;;;;20.40;99.90;;;;;;5121830;27;19916;-54
2022/07/01 09:56:05;;;;;;;;;;;20.60;99.90;;;;;;5124384;27;19922;-54
2022/07/01 09:58:45;;;;;;;;;;;20.70;99.90;;;;;;5123801;27;19911;-54
2022/07/01 10:01:25;;;;;;;;;;;20.70;99.90;;;;;;5124208;27;19916;-57
2022/07/01 10:04:07;;;;;;;;;;;20.70;99.90;;;;;;5122543;27;19953;-56
2022/07/01 10:06:53;;;;;;;;;;;20.60;99.90;;;;;;5124364;27;19911;-54
2022/07/01 10:09:43;;;;;;;;;;;20.30;99.90;;;;;;5124266;27;19916;-56
2022/07/01 10:12:31;;;;;;;;;;;19.90;99.90;;;;;;5104091;27;19969;-55
2022/07/01 10:15:16;;;;;;;;;;;19.40;99.90;;;;;;5124376;27;19945;-55
2022/07/01 10:17:56;;;;;;;;;;;19.00;99.90;;;;;;5123860;27;20319;-54
2022/07/01 10:20:37;;;;;;;;;;;19.00;99.90;;;;;;5103578;27;19916;-57
2022/07/01 10:23:20;;;;;;;;;;;19.70;99.90;;;;;;5124710;27;19912;-56
2022/07/01 10:26:04;;;;;;;;;;;20.70;99.90;;;;;;5123810;27;19919;-56
2022/07/01 10:28:46;;;;;;;;;;;22.00;99.90;;;;;;5124033;27;20280;-55
2022/07/01 10:31:37;;;;;;;;;;;22.90;99.90;;;;;;5124181;27;19912;-56
2022/07/01 10:34:18;;;;;;;;;;;23.40;99.90;;;;;;5119165;27;19912;-54
2022/07/01 10:37:03;;;;;;;;;;;23.40;99.90;;;;;;5124353;27;20254;-56
2022/07/01 10:40:00;;;;;;;;;;;23.30;99.90;;;;;;5124475;27;19922;-55
2022/07/01 10:42:54;;;;;;;;;;;22.80;99.90;;;;;;5124945;27;19912;-55
2022/07/01 10:45:43;;;;;;;;;;;22.30;99.90;;;;;;5103964;27;19926;-54
2022/07/01 10:48:23;;;;;;;;;;;21.80;99.90;;;;;;5124038;27;19922;-55
2022/07/01 10:51:07;;;;;;;;;;;21.90;99.90;;;;;;5123962;27;19912;-55
2022/07/01 10:53:48;;;;;;;;;;;22.00;99.90;;;;;;5118707;27;19912;-55
2022/07/01 10:56:40;;;;;;;;;;;21.70;99.90;;;;;;5124207;27;19918;-56
2022/07/01 10:59:20;;;;;;;;;;;21.20;99.90;;;;;;5103763;27;20429;-54
2022/07/01 11:01:59;;;;;;;;;;;20.50;99.90;;;;;;5124401;27;19912;-55
2022/07/01 11:04:39;;;;;;;;;;;19.90;99.90;;;;;;5117710;27;19912;-55
2022/07/01 11:07:19;;;;;;;;;;;19.60;99.90;;;;;;5103651;27;19920;-55
2022/07/01 11:09:59;;;;;;;;;;;19.60;99.90;;;;;;5123696;27;19916;-56
2022/07/01 11:12:40;;;;;;;;;;;20.20;99.90;;;;;;5124886;27;19912;-54
2022/07/01 11:15:22;;;;;;;;;;;21.00;99.90;;;;;;5124222;27;19918;-55
2022/07/01 11:18:04;;;;;;;;;;;21.50;99.90;;;;;;5124008;27;19918;-57
2022/07/01 11:20:45;;;;;;;;;;;21.50;99.90;;;;;;5123900;27;20320;-55
2022/07/01 11:23:24;;;;;;;;;;;21.40;99.90;;;;;;5125265;27;20428;-54
2022/07/01 11:26:04;;;;;;;;;;;21.00;99.90;;;;;;5083091;27;19958;-54
2022/07/01 11:28:44;;;;;;;;;;;21.10;99.90;;;;;;5124715;27;19912;-56
2022/07/01 11:31:34;;;;;;;;;;;21.30;99.90;;;;;;5124337;27;19912;-56
2022/07/01 11:34:16;;;;;;;;;;;21.40;99.90;;;;;;5099475;27;19926;-56
2022/07/01 11:40:02;;;;;;;;;;;21.50;99.90;;;;;;5103405;27;19946;-54
2022/07/01 11:42:46;;;;;;;;;;;21.00;99.90;;;;;;5124651;27;20324;-55
2022/07/01 11:45:27;;;;;;;;;;;20.80;99.90;;;;;;5123861;27;20025;-57
2022/07/01 11:48:08;;;;;;;;;;;20.70;99.90;;;;;;5103256;27;19958;-55
2022/07/01 11:50:48;;;;;;;;;;;20.90;99.90;;;;;;5124613;27;20103;-55
2022/07/01 11:53:27;;;;;;;;;;;21.30;99.90;;;;;;5121700;27;19916;-55
2022/07/01 11:56:07;;;;;;;;;;;22.00;99.90;;;;;;5123864;27;20087;-56
2022/07/01 11:58:49;;;;;;;;;;;22.60;99.90;;;;;;5124068;27;19922;-56
2022/07/01 12:01:31;;;;;;;;;;;23.00;99.90;;;;;;5124050;27;20385;-56
2022/07/01 12:04:16;;;;;;;;;;;22.60;99.90;;;;;;5121668;27;19918;-54
2022/07/01 12:06:56;;;;;;;;;;;21.90;99.90;;;;;;5103019;27;19912;-55
2022/07/01 12:09:36;;;;;;;;;;;21.70;99.90;;;;;;5124935;27;19911;-55
2022/07/01 12:12:18;;;;;;;;;;;21.50;99.90;;;;;;5104179;27;20247;-56
2022/07/01 12:14:59;;;;;;;;;;;21.40;99.90;;;;;;5124023;27;20171;-55
2022/07/01 12:17:40;;;;;;;;;;;21.20;99.90;;;;;;5102844;27;19965;-55
2022/07/01 12:20:32;;;;;;;;;;;20.80;99.90;;;;;;5103696;27;19912;-55
2022/07/01 12:23:14;;;;;;;;;;;20.70;99.90;;;;;;5103844;27;19926;-55
2022/07/01 12:25:54;;;;;;;;;;;20.70;99.90;;;;;;5123081;27;19915;-55
2022/07/01 12:28:38;;;;;;;;;;;20.80;99.90;;;;;;5124672;27;19912;-55
2022/07/01 12:31:18;;;;;;;;;;;20.70;99.90;;;;;;5124254;27;20506;-55
2022/07/01 12:33:58;;;;;;;;;;;20.60;99.90;;;;;;5115087;27;20425;-56
2022/07/01 12:36:38;;;;;;;;;;;20.40;99.90;;;;;;5103361;27;19953;-55
2022/07/01 12:39:18;;;;;;;;;;;20.20;99.90;;;;;;5104188;27;19916;-56
2022/07/01 12:41:58;;;;;;;;;;;19.90;99.90;;;;;;5124071;27;19912;-56
2022/07/01 12:44:44;;;;;;;;;;;19.80;99.90;;;;;;5124503;27;20307;-55
2022/07/01 12:47:29;;;;;;;;;;;19.70;99.90;;;;;;5123777;27;20292;-55
2022/07/01 12:50:10;;;;;;;;;;;19.60;99.90;;;;;;5124258;27;19915;-57
2022/07/01 12:53:01;;;;;;;;;;;20.00;99.90;;;;;;5104060;27;19958;-56
2022/07/01 12:55:41;;;;;;;;;;;20.30;99.90;;;;;;5104057;27;19916;-55
2022/07/01 12:58:23;;;;;;;;;;;20.40;99.90;;;;;;5124122;27;20320;-56
2022/07/01 13:01:04;;;;;;;;;;;20.30;99.90;;;;;;5123835;27;19933;-54
2022/07/01 13:03:44;;;;;;;;;;;20.10;99.90;;;;;;5119025;27;19919;-55
2022/07/01 13:06:23;;;;;;;;;;;19.80;99.90;;;;;;5102758;27;20441;-55
2022/07/01 13:09:03;;;;;;;;;;;19.60;99.90;;;;;;5123947;27;20377;-55
2022/07/01 13:11:43;;;;;;;;;;;19.50;99.90;;;;;;5124451;27;19918;-54
2022/07/01 13:14:23;;;;;;;;;;;19.50;99.90;;;;;;5123718;27;19912;-55
2022/07/01 13:17:03;;;;;;;;;;;19.30;99.90;;;;;;5123701;27;19912;-55
2022/07/01 13:19:43;;;;;;;;;;;19.10;99.90;;;;;;5123845;27;19912;-57
2022/07/01 13:22:23;;;;;;;;;;;18.90;99.90;;;;;;5104035;27;19934;-54
2022/07/01 13:25:03;;;;;;;;;;;18.60;99.90;;;;;;5122635;27;19916;-54
2022/07/01 13:27:43;;;;;;;;;;;18.30;99.90;;;;;;5113120;27;19916;-55
2022/07/01 13:30:24;;;;;;;;;;;18.10;99.90;;;;;;5123095;27;19911;-54
2022/07/01 13:33:03;;;;;;;;;;;18.00;99.90;;;;;;5102084;27;19978;-56
2022/07/01 13:35:44;;;;;;;;;;;18.00;99.90;;;;;;5123470;27;20369;-54
2022/07/01 13:38:27;;;;;;;;;;;18.10;99.90;;;;;;4913303;27;5639888;-53
2022/07/01 13:41:07;;;;;;;;;;;18.00;99.90;;;;;;4997899;27;3965930;-54
2022/07/01 13:43:47;;;;;;;;;;;18.10;99.90;;;;;;5102428;27;19920;-54
2022/07/01 13:46:28;;;;;;;;;;;18.10;99.90;;;;;;5123731;27;20377;-54
2022/07/01 13:49:09;;;;;;;;;;;18.00;99.90;;;;;;5103868;27;19954;-55
2022/07/01 13:52:00;;;;;;;;;;;17.90;99.90;;;;;;5115218;27;19912;-55
2022/07/01 13:54:40;;;;;;;;;;;17.90;99.90;;;;;;5123328;27;19912;-55
2022/07/01 13:57:20;;;;;;;;;;;17.80;99.90;;;;;;5122111;27;20320;-54
2022/07/01 14:00:00;;;;;;;;;;;17.90;99.90;;;;;;5103541;27;19916;-54
2022/07/01 14:02:40;;;;;;;;;;;18.00;99.90;;;;;;5123021;27;19912;-54
2022/07/01 14:05:20;;;;;;;;;;;18.00;99.90;;;;;;5096128;27;19912;-54
2022/07/01 14:07:59;;;;;;;;;;;17.90;99.90;;;;;;5123988;27;19949;-54
2022/07/01 14:10:41;;;;;;;;;;;17.80;99.90;;;;;;5124137;27;19920;-55
2022/07/01 14:13:22;;;;;;;;;;;17.80;99.90;;;;;;5122667;27;20403;-54
2022/07/01 14:16:06;;;;;;;;;;;17.90;99.90;;;;;;5103352;27;20320;-54
2022/07/01 14:18:47;;;;;;;;;;;17.90;99.90;;;;;;5118783;27;19912;-55
2022/07/01 14:21:26;;;;;;;;;;;17.70;99.90;;;;;;5154602;27;19924;-54
2022/07/01 14:24:07;;;;;;;;;;;17.50;99.90;;;;;;5123288;27;19953;-55
2022/07/01 14:26:48;;;;;;;;;;;17.30;99.90;;;;;;5145692;27;19915;-55
2022/07/01 14:29:28;;;;;;;;;;;17.30;99.90;;;;;;5124219;27;19912;-54
2022/07/01 14:32:08;;;;;;;;;;;17.20;99.90;;;;;;5124576;27;19916;-54
2022/07/01 14:34:49;;;;;;;;;;;17.20;99.90;;;;;;5089083;27;19926;-54
2022/07/01 14:37:29;;;;;;;;;;;17.20;99.90;;;;;;5144540;27;19911;-55
2022/07/01 14:40:09;;;;;;;;;;;17.20;99.90;;;;;;5124282;27;19916;-54
2022/07/01 14:42:50;;;;;;;;;;;17.10;99.90;;;;;;5124580;27;20388;-54
2022/07/01 14:45:30;;;;;;;;;;;17.10;99.90;;;;;;5103227;27;19930;-55
2022/07/01 14:48:10;;;;;;;;;;;16.90;99.90;;;;;;5103352;27;19916;-55
2022/07/01 14:50:49;;;;;;;;;;;16.80;99.90;;;;;;5123760;27;19918;-55
2022/07/01 14:53:29;;;;;;;;;;;16.70;99.90;;;;;;5103900;27;20315;-54
2022/07/01 14:56:12;;;;;;;;;;;16.50;99.90;;;;;;5123659;27;19915;-55
2022/07/01 14:58:52;;;;;;;;;;;16.50;99.90;;;;;;5124800;27;19912;-55
2022/07/01 15:01:32;;;;;;;;;;;16.40;99.90;;;;;;5122150;27;20397;-55
2022/07/01 15:04:12;;;;;;;;;;;16.40;99.90;;;;;;5115481;27;19913;-56
2022/07/01 15:06:52;;;;;;;;;;;16.40;99.90;;;;;;5123645;27;19912;-55
2022/07/01 15:09:34;;;;;;;;;;;16.10;99.90;;;;;;5124765;27;19918;-54
2022/07/01 15:12:15;;;;;;;;;;;15.80;99.90;;;;;;5124946;27;19922;-54
2022/07/01 15:14:54;;;;;;;;;;;15.70;99.90;;;;;;5116890;27;20190;-55
2022/07/01 15:17:41;;;;;;;;;;;15.60;99.90;;;;;;5120266;27;19918;-55
2022/07/01 15:20:22;;;;;;;;;;;15.80;99.90;;;;;;5104892;27;20464;-55
2022/07/01 15:23:02;;;;;;;;;;;16.20;99.90;;;;;;5124241;27;19911;-54
2022/07/01 15:25:41;;;;;;;;;;;16.80;99.90;;;;;;5103613;27;19926;-55
2022/07/01 15:28:23;;;;;;;;;;;17.40;99.90;;;;;;5123967;27;19918;-54
2022/07/01 15:31:03;;;;;;;;;;;17.90;99.90;;;;;;5123909;27;20281;-55
2022/07/01 15:33:43;;;;;;;;;;;18.20;99.90;;;;;;5121615;27;19918;-55
2022/07/01 15:36:23;;;;;;;;;;;18.20;99.90;;;;;;5102262;27;19918;-54
2022/07/01 15:39:02;;;;;;;;;;;18.10;99.90;;;;;;5123188;27;19925;-55
2022/07/01 15:41:42;;;;;;;;;;;17.70;99.90;;;;;;5104214;27;19958;-55
2022/07/01 15:44:22;;;;;;;;;;;17.30;99.90;;;;;;5104398;27;19918;-54
2022/07/01 15:48:05;;;;;;;;;;;17.20;99.90;;;;;;5103686;27;20288;-55
2022/07/01 15:50:03;;;;;;;;;;;17.10;99.90;;;;;;5123976;27;20099;-54
2022/07/01 15:52:45;;;;;;;;;;;17.10;99.90;;;;;;5104562;27;19962;-54